createdAt,value
2018-04-06T00:01:38.629Z,98193.33
2018-04-06T00:03:16.183Z,98204.23
2018-04-06T00:04:53.578Z,98192.03
2018-04-06T00:06:32.003Z,98174.19
2018-04-06T00:08:09.952Z,98070.31
2018-04-06T00:09:48.109Z,97986.16
2018-04-06T00:11:26.228Z,98008.03
2018-04-06T00:13:04.440Z,98022.39
2018-04-06T00:14:42.262Z,98058.18
2018-04-06T00:16:19.368Z,98146.66
2018-04-06T00:17:57.396Z,98202.87
2018-04-06T00:19:34.848Z,98319.09
2018-04-06T00:21:12.530Z,98337.01
2018-04-06T00:22:50.331Z,98312.98
2018-04-06T00:24:27.570Z,98278.01
2018-04-06T00:26:05.152Z,98201.53
2018-04-06T00:27:42.930Z,98050.70
2018-04-06T00:29:20.272Z,98059.02
2018-04-06T00:30:58.823Z,97935.97
2018-04-06T00:32:36.470Z,97754.48
2018-04-06T00:34:13.754Z,97651.39
2018-04-06T00:35:52.110Z,97523.52
2018-04-06T00:37:29.454Z,97360.31
2018-04-06T00:39:07.580Z,97293.47
2018-04-06T00:40:45.231Z,97229.66
2018-04-06T00:42:22.249Z,97238.30
2018-04-06T00:44:00.413Z,97124.25
2018-04-06T00:45:37.962Z,97058.36
2018-04-06T00:47:14.827Z,96997.34
2018-04-06T00:48:52.397Z,96951.90
2018-04-06T00:50:30.053Z,96908.98
2018-04-06T00:52:07.590Z,96889.94
2018-04-06T00:53:50.646Z,96912.37
2018-04-06T00:55:27.535Z,96924.56
2018-04-06T00:57:04.366Z,96925.36
2018-04-06T00:58:41.863Z,96986.48
2018-04-06T01:00:19.090Z,97032.81
2018-04-06T01:01:56.115Z,97071.33
2018-04-06T01:03:34.039Z,97116.02
2018-04-06T01:05:11.899Z,97189.73
2018-04-06T01:06:50.067Z,97231.75
2018-04-06T01:08:27.696Z,97317.67
2018-04-06T01:10:07.823Z,97410.98
2018-04-06T01:11:46.299Z,97546.51
2018-04-06T01:13:23.308Z,97665.22
2018-04-06T01:15:01.120Z,97767.02
2018-04-06T01:16:39.443Z,97896.75
2018-04-06T01:18:16.492Z,97994.81
2018-04-06T01:19:53.567Z,98062.79
2018-04-06T01:21:31.019Z,98018.75
2018-04-06T01:23:08.646Z,97904.11
2018-04-06T01:24:45.579Z,97795.73
2018-04-06T01:26:22.492Z,97867.60
2018-04-06T01:28:00.391Z,97986.03
2018-04-06T01:29:37.544Z,98082.86
2018-04-06T01:31:15.056Z,98075.88
2018-04-06T01:32:52.382Z,98077.63
2018-04-06T01:34:29.502Z,98038.84
2018-04-06T01:36:06.137Z,98068.51
2018-04-06T01:37:42.968Z,98098.53
2018-04-06T01:39:19.942Z,97978.21
2018-04-06T01:40:56.879Z,97939.47
2018-04-06T01:42:33.692Z,97950.33
2018-04-06T01:44:10.260Z,98002.22
2018-04-06T01:45:48.254Z,98080.30
2018-04-06T01:47:27.248Z,98047.58
2018-04-06T01:49:03.934Z,97975.19
2018-04-06T01:50:40.519Z,97920.73
2018-04-06T01:52:17.218Z,97903.70
2018-04-06T01:53:54.551Z,97770.06
2018-04-06T01:55:31.346Z,97555.63
2018-04-06T01:57:08.319Z,97327.64
2018-04-06T01:58:45.345Z,97188.84
2018-04-06T02:00:22.871Z,97204.92
2018-04-06T02:02:00.350Z,97209.66
2018-04-06T02:03:37.568Z,97230.89
2018-04-06T02:05:14.299Z,97381.43
2018-04-06T02:06:52.181Z,97537.77
2018-04-06T02:08:29.147Z,97608.69
2018-04-06T02:10:06.260Z,97628.22
2018-04-06T02:11:43.169Z,97742.66
2018-04-06T02:13:20.016Z,97835.78
2018-04-06T02:14:56.608Z,97868.44
2018-04-06T02:16:33.655Z,97954.65
2018-04-06T02:18:10.371Z,97989.52
2018-04-06T02:19:48.033Z,98019.66
2018-04-06T02:21:24.631Z,98048.02
2018-04-06T02:23:02.131Z,98058.85
2018-04-06T02:24:39.594Z,98106.84
2018-04-06T02:26:16.576Z,98124.25
2018-04-06T02:27:53.310Z,98111.22
2018-04-06T02:29:30.205Z,98098.05
2018-04-06T02:31:06.991Z,97970.77
2018-04-06T02:32:43.879Z,97702.57
2018-04-06T02:34:20.881Z,97482.17
2018-04-06T02:35:57.652Z,97368.44
2018-04-06T02:37:34.473Z,97203.11
2018-04-06T02:39:11.472Z,97034.10
2018-04-06T02:40:48.568Z,96939.67
2018-04-06T02:42:25.034Z,96833.62
2018-04-06T02:44:01.642Z,96776.89
2018-04-06T02:45:39.474Z,96731.45
2018-04-06T02:47:15.860Z,96721.53
2018-04-06T02:48:52.313Z,96703.76
2018-04-06T02:50:29.121Z,96734.08
2018-04-06T02:52:06.683Z,96734.93
2018-04-06T02:53:43.136Z,96727.51
2018-04-06T02:55:19.834Z,96761.25
2018-04-06T02:56:57.235Z,96843.52
2018-04-06T02:58:34.185Z,96866.03
2018-04-06T03:00:11.124Z,96863.41
2018-04-06T03:01:50.291Z,96888.03
2018-04-06T03:03:26.829Z,96865.12
2018-04-06T03:05:04.024Z,96821.39
2018-04-06T03:06:40.711Z,96806.70
2018-04-06T03:08:17.229Z,96821.45
2018-04-06T03:09:53.810Z,96836.12
2018-04-06T03:11:30.849Z,96839.17
2018-04-06T03:13:08.110Z,96842.23
2018-04-06T03:14:44.572Z,96904.48
2018-04-06T03:16:21.337Z,97011.50
2018-04-06T03:17:57.747Z,97087.30
2018-04-06T03:19:35.111Z,97157.52
2018-04-06T03:21:12.290Z,97240.32
2018-04-06T03:22:48.930Z,97292.80
2018-04-06T03:24:25.990Z,97341.46
2018-04-06T03:26:02.349Z,97407.83
2018-04-06T03:27:38.827Z,97395.63
2018-04-06T03:29:15.391Z,97381.77
2018-04-06T03:30:52.689Z,97281.16
2018-04-06T03:32:29.184Z,97175.31
2018-04-06T03:34:05.653Z,97061.27
2018-04-06T03:35:43.375Z,96989.81
2018-04-06T03:37:20.496Z,96899.77
2018-04-06T03:38:57.475Z,96817.12
2018-04-06T03:40:35.102Z,96742.29
2018-04-06T03:42:12.027Z,96692.13
2018-04-06T03:43:49.203Z,96636.01
2018-04-06T03:45:25.850Z,96567.23
2018-04-06T03:47:02.269Z,96520.58
2018-04-06T03:48:39.786Z,96488.55
2018-04-06T03:50:16.245Z,96474.81
2018-04-06T03:51:52.682Z,96471.77
2018-04-06T03:53:29.964Z,96461.83
2018-04-06T03:55:07.167Z,96470.91
2018-04-06T03:56:44.602Z,96482.09
2018-04-06T03:58:21.529Z,96489.48
2018-04-06T04:00:01.221Z,96479.93
2018-04-06T04:01:38.230Z,96467.08
2018-04-06T04:03:15.360Z,96442.88
2018-04-06T04:04:51.863Z,96416.08
2018-04-06T04:06:28.200Z,96403.16
2018-04-06T04:08:06.131Z,96378.16
2018-04-06T04:09:43.498Z,96359.00
2018-04-06T04:11:20.209Z,96349.14
2018-04-06T04:12:57.154Z,96330.62
2018-04-06T04:14:33.625Z,96305.16
2018-04-06T04:16:11.774Z,96312.08
2018-04-06T04:17:49.559Z,96325.41
2018-04-06T04:19:26.652Z,96335.84
2018-04-06T04:21:03.240Z,96344.88
2018-04-06T04:22:40.421Z,96334.92
2018-04-06T04:24:16.896Z,96330.23
2018-04-06T04:25:53.618Z,96340.59
2018-04-06T04:27:30.877Z,96374.22
2018-04-06T04:29:07.855Z,96409.13
2018-04-06T04:30:44.804Z,96444.97
2018-04-06T04:32:22.140Z,96473.50
2018-04-06T04:33:58.685Z,96491.22
2018-04-06T04:35:36.156Z,96458.67
2018-04-06T04:37:13.162Z,96422.97
2018-04-06T04:38:49.676Z,96409.27
2018-04-06T04:40:26.141Z,96388.16
2018-04-06T04:42:03.872Z,96390.15
2018-04-06T04:43:40.456Z,96426.44
2018-04-06T04:45:17.203Z,96476.88
2018-04-06T04:46:54.480Z,96520.94
2018-04-06T04:48:31.497Z,96515.36
2018-04-06T04:50:07.970Z,96509.30
2018-04-06T04:51:44.661Z,96479.47
2018-04-06T04:53:22.011Z,96463.99
2018-04-06T04:54:59.343Z,96454.88
2018-04-06T04:56:36.711Z,96444.16
2018-04-06T04:58:14.132Z,96423.85
2018-04-06T04:59:50.639Z,96428.61
2018-04-06T05:01:27.936Z,96436.34
2018-04-06T05:03:04.613Z,96422.50
2018-04-06T05:04:42.035Z,96406.58
2018-04-06T05:06:18.789Z,96389.72
2018-04-06T05:07:56.010Z,96410.83
2018-04-06T05:09:32.666Z,96420.41
2018-04-06T05:11:09.994Z,96397.52
2018-04-06T05:12:46.872Z,96390.15
2018-04-06T05:14:25.901Z,96394.12
2018-04-06T05:16:03.017Z,96380.28
2018-04-06T05:17:39.928Z,96383.63
2018-04-06T05:19:16.547Z,96394.05
2018-04-06T05:20:56.167Z,96388.37
2018-04-06T05:22:33.837Z,96425.98
2018-04-06T05:24:11.540Z,96488.13
2018-04-06T05:25:49.183Z,96529.56
2018-04-06T05:27:26.074Z,96526.13
2018-04-06T05:29:03.742Z,96539.15
2018-04-06T05:30:40.829Z,96554.17
2018-04-06T05:32:17.478Z,96539.91
2018-04-06T05:33:54.596Z,96569.77
2018-04-06T05:35:31.187Z,96590.02
2018-04-06T05:37:07.937Z,96634.07
2018-04-06T05:38:45.586Z,96620.22
2018-04-06T05:40:22.902Z,96691.97
2018-04-06T05:41:59.776Z,96744.69
2018-04-06T05:43:36.809Z,96785.04
2018-04-06T05:45:15.385Z,96770.68
2018-04-06T05:46:53.773Z,96809.30
2018-04-06T05:48:31.376Z,96862.85
2018-04-06T05:50:09.142Z,96924.25
2018-04-06T05:51:46.254Z,97018.31
2018-04-06T05:53:24.136Z,97075.95
2018-04-06T05:55:01.635Z,97122.34
2018-04-06T05:58:19.369Z,97174.36
2018-04-06T05:59:57.309Z,97253.70
2018-04-06T06:01:34.499Z,97328.38
2018-04-06T06:03:12.081Z,97267.19
2018-04-06T06:04:50.030Z,97225.07
2018-04-06T06:19:36.337Z,97215.48
2018-04-06T06:21:13.750Z,97254.56
2018-04-06T06:22:50.981Z,97327.95
2018-04-06T06:24:28.204Z,97345.27
2018-04-06T06:26:07.678Z,97426.48
2018-04-06T06:27:49.639Z,97513.77
2018-04-06T06:29:28.198Z,97499.38
2018-04-06T06:31:07.402Z,97449.91
2018-04-06T06:32:46.340Z,97471.69
2018-04-06T06:34:23.708Z,97513.38
2018-04-06T06:36:01.271Z,97577.23
2018-04-06T06:37:38.473Z,97541.17
2018-04-06T06:39:17.165Z,97587.30
2018-04-06T06:40:55.434Z,97631.20
2018-04-06T06:42:33.001Z,97604.19
2018-04-06T06:44:10.555Z,97561.61
2018-04-06T06:45:48.336Z,97622.05
2018-04-06T06:47:26.412Z,97595.09
2018-04-06T06:49:04.945Z,97577.27
2018-04-06T06:50:43.484Z,97626.41
2018-04-06T06:52:21.542Z,97603.78
2018-04-06T06:53:59.361Z,97618.13
2018-04-06T06:59:41.490Z,97729.11
2018-04-06T07:01:37.394Z,97725.61
2018-04-06T07:03:14.889Z,97705.09
2018-04-06T07:04:52.993Z,97750.00
2018-04-06T07:06:31.000Z,97834.38
2018-04-06T07:08:09.114Z,97864.50
2018-04-06T07:09:46.985Z,97826.99
2018-04-06T07:11:25.234Z,97878.42
2018-04-06T07:13:03.146Z,97931.58
2018-04-06T07:14:40.843Z,98016.61
2018-04-06T07:16:18.874Z,97985.57
2018-04-06T07:17:56.952Z,98010.95
2018-04-06T07:19:34.943Z,98109.47
2018-04-06T07:21:12.468Z,97996.95
2018-04-06T07:22:50.279Z,98010.09
2018-04-06T07:24:28.231Z,98058.47
2018-04-06T07:26:05.953Z,98029.30
2018-04-06T07:27:44.557Z,98007.39
2018-04-06T07:29:22.386Z,97990.42
2018-04-06T07:31:00.735Z,98005.72
2018-04-06T07:32:39.333Z,98013.54
2018-04-06T07:34:17.834Z,98125.71
2018-04-06T07:35:55.584Z,98240.03
2018-04-06T07:37:33.506Z,98233.93
2018-04-06T07:39:11.292Z,98193.27
2018-04-06T07:40:49.000Z,98118.67
2018-04-06T07:42:28.125Z,98147.08
2018-04-06T07:44:06.256Z,98096.87
2018-04-06T07:45:45.089Z,98178.91
2018-04-06T07:47:22.826Z,98215.14
2018-04-06T07:49:00.403Z,98256.20
2018-04-06T07:50:38.780Z,98233.95
2018-04-06T07:56:22.417Z,98136.56
2018-04-06T07:58:01.140Z,98186.30
2018-04-06T07:59:38.564Z,98297.64
2018-04-06T08:01:16.868Z,98252.23
2018-04-06T08:02:54.632Z,98281.52
2018-04-06T08:04:32.996Z,98316.87
2018-04-06T08:06:10.860Z,98378.47
2018-04-06T08:07:48.528Z,98430.83
2018-04-06T08:09:26.304Z,98403.30
2018-04-06T08:11:04.113Z,98482.42
2018-04-06T08:12:41.889Z,98581.73
2018-04-06T08:14:20.405Z,98503.43
2018-04-06T08:16:02.552Z,98434.36
2018-04-06T08:17:40.415Z,98503.91
2018-04-06T08:19:18.271Z,98548.45
2018-04-06T08:20:58.096Z,98565.97
2018-04-06T08:22:37.418Z,98586.57
2018-04-06T08:24:19.880Z,98779.63
2018-04-06T08:26:05.109Z,98676.32
2018-04-06T08:27:44.561Z,98718.30
2018-04-06T08:29:26.265Z,98695.09
2018-04-06T08:31:05.209Z,98691.62
2018-04-06T08:32:43.049Z,98789.70
2018-04-06T08:34:32.414Z,98915.03
2018-04-06T08:36:12.833Z,98896.63
2018-04-06T08:37:51.498Z,98801.08
2018-04-06T08:39:29.350Z,98740.23
2018-04-06T08:41:07.784Z,98866.41
2018-04-06T08:42:47.362Z,98951.42
2018-04-06T08:44:30.121Z,98781.84
2018-04-06T08:46:09.845Z,98701.23
2018-04-06T08:47:48.436Z,98638.61
2018-04-06T08:49:28.769Z,98633.00
2018-04-06T08:51:06.489Z,98649.19
2018-04-06T08:52:45.298Z,98638.26
2018-04-06T08:54:23.249Z,98707.41
2018-04-06T08:56:01.131Z,98639.17
2018-04-06T08:57:39.752Z,98696.92
2018-04-06T08:59:17.709Z,98801.11
2018-04-06T09:00:55.721Z,98798.53
2018-04-06T09:02:34.145Z,98929.10
2018-04-06T09:04:11.891Z,98983.91
2018-04-06T09:05:49.971Z,99099.73
2018-04-06T09:07:27.709Z,99353.17
2018-04-06T09:09:05.773Z,99317.94
2018-04-06T09:10:43.338Z,99182.23
2018-04-06T09:12:22.592Z,98987.38
2018-04-06T09:14:00.206Z,99062.41
2018-04-06T09:15:37.964Z,99166.87
2018-04-06T09:17:15.788Z,99070.73
2018-04-06T09:18:53.549Z,99035.63
2018-04-06T09:25:52.367Z,98898.43
2018-04-06T09:27:30.328Z,98911.19
2018-04-06T09:30:50.869Z,98827.47
2018-04-06T09:32:28.434Z,98830.13
2018-04-06T09:34:06.855Z,98854.14
2018-04-06T09:35:46.935Z,98826.98
2018-04-06T09:37:26.009Z,98887.00
2018-04-06T09:39:04.076Z,98916.84
2018-04-06T09:40:41.570Z,98871.22
2018-04-06T09:42:19.739Z,98918.53
2018-04-06T09:43:57.648Z,98938.30
2018-04-06T09:45:36.140Z,98968.98
2018-04-06T09:47:14.638Z,99097.96
2018-04-06T09:48:52.683Z,99255.57
2018-04-06T09:50:31.030Z,99359.68
2018-04-06T09:52:09.708Z,99448.95
2018-04-06T09:53:48.108Z,99415.53
2018-04-06T09:55:27.153Z,99455.17
2018-04-06T09:57:04.988Z,99655.34
2018-04-06T09:58:47.098Z,99750.45
2018-04-06T10:00:29.082Z,99967.78
2018-04-06T10:02:10.461Z,99958.54
2018-04-06T10:03:48.055Z,99849.64
2018-04-06T10:05:25.623Z,99538.31
2018-04-06T10:07:03.849Z,99275.78
2018-04-06T10:08:41.454Z,99181.81
2018-04-06T10:10:19.678Z,99171.27
2018-04-06T10:11:57.308Z,99207.23
2018-04-06T10:13:35.685Z,99238.87
2018-04-06T10:15:15.712Z,99247.23
2018-04-06T10:16:53.379Z,99302.56
2018-04-06T10:18:31.318Z,99278.38
2018-04-06T10:20:09.258Z,99359.31
2018-04-06T10:21:46.814Z,99359.75
2018-04-06T10:23:27.340Z,99361.90
2018-04-06T10:25:05.738Z,99404.59
2018-04-06T10:26:43.404Z,99426.15
2018-04-06T10:28:22.035Z,99490.76
2018-04-06T10:30:00.481Z,99492.09
2018-04-06T10:31:38.531Z,99508.80
2018-04-06T10:33:16.189Z,99552.31
2018-04-06T10:34:54.583Z,99519.73
2018-04-06T10:36:33.180Z,99534.30
2018-04-06T10:38:12.737Z,99530.78
2018-04-06T10:39:51.848Z,99532.98
2018-04-06T10:41:30.051Z,99565.13
2018-04-06T10:43:09.068Z,99540.02
2018-04-06T10:44:47.327Z,99593.67
2018-04-06T10:46:25.748Z,99693.20
2018-04-06T10:48:03.787Z,99755.70
2018-04-06T10:49:43.121Z,99794.92
2018-04-06T10:51:21.952Z,99806.39
2018-04-06T10:52:59.722Z,99741.18
2018-04-06T10:54:37.338Z,99773.37
2018-04-06T10:56:14.897Z,99784.80
2018-04-06T10:57:53.715Z,99774.27
2018-04-06T10:59:32.334Z,99847.36
2018-04-06T11:02:43.695Z,99861.91
2018-04-06T11:04:22.341Z,99817.43
2018-04-06T11:06:00.250Z,99820.88
2018-04-06T11:07:38.355Z,99913.54
2018-04-06T11:09:16.389Z,99847.34
2018-04-06T11:10:54.004Z,99744.27
2018-04-06T11:12:32.370Z,99786.58
2018-04-06T11:14:10.091Z,99826.63
2018-04-06T11:15:47.728Z,99917.48
2018-04-06T11:17:25.529Z,99943.45
2018-04-06T11:19:04.113Z,99995.09
2018-04-06T11:20:42.037Z,100009.63
2018-04-06T11:22:19.846Z,100064.86
2018-04-06T11:23:57.876Z,100105.00
2018-04-06T11:25:35.891Z,100146.98
2018-04-06T11:27:14.329Z,100267.53
2018-04-06T11:28:52.007Z,100138.57
2018-04-06T11:38:36.068Z,100101.00
2018-04-06T11:40:14.132Z,100072.25
2018-04-06T11:41:52.564Z,100014.48
2018-04-06T11:43:31.196Z,100064.39
2018-04-06T11:45:09.094Z,100156.63
2018-04-06T11:46:47.594Z,100206.11
2018-04-06T11:48:26.576Z,100317.42
2018-04-06T11:50:04.796Z,100365.22
2018-04-06T11:51:43.649Z,100399.72
2018-04-06T11:53:22.553Z,100488.22
2018-04-06T11:55:00.434Z,100502.79
2018-04-06T11:56:38.089Z,100524.91
2018-04-06T11:58:15.233Z,100586.02
2018-04-06T11:59:54.446Z,100481.06
2018-04-06T12:01:33.210Z,100399.72
2018-04-06T12:03:11.581Z,100349.71
2018-04-06T12:04:49.376Z,100336.00
2018-04-06T12:06:28.393Z,100353.66
2018-04-06T12:08:05.927Z,100471.78
2018-04-06T12:09:43.700Z,100517.79
2018-04-06T12:11:21.714Z,100565.20
2018-04-06T12:12:59.777Z,100566.92
2018-04-06T12:14:38.113Z,100586.37
2018-04-06T12:16:16.027Z,100480.64
2018-04-06T12:17:53.726Z,100438.59
2018-04-06T12:19:33.136Z,100395.63
2018-04-06T12:21:10.976Z,100384.17
2018-04-06T12:22:48.697Z,100423.05
2018-04-06T12:24:27.134Z,100428.83
2018-04-06T12:26:05.500Z,100482.83
2018-04-06T12:27:43.082Z,100528.83
2018-04-06T12:29:20.803Z,100560.70
2018-04-06T12:31:00.916Z,100657.67
2018-04-06T12:32:39.859Z,100496.08
2018-04-06T12:37:52.610Z,100466.41
2018-04-06T12:39:30.806Z,100556.30
2018-04-06T12:41:08.617Z,100631.48
2018-04-06T12:42:46.953Z,100642.60
2018-04-06T12:44:27.577Z,100571.74
2018-04-06T12:46:06.425Z,100604.45
2018-04-06T12:47:43.911Z,100650.53
2018-04-06T12:49:21.705Z,100582.80
2018-04-06T12:50:59.785Z,100552.66
2018-04-06T12:52:38.638Z,100515.49
2018-04-06T12:54:17.208Z,100549.59
2018-04-06T12:55:55.704Z,100610.20
2018-04-06T12:57:32.913Z,100705.89
2018-04-06T12:59:11.607Z,100676.22
2018-04-06T13:00:49.029Z,100695.70
2018-04-06T13:02:26.310Z,100747.12
2018-04-06T13:04:03.953Z,100712.95
2018-04-06T13:05:42.718Z,100655.38
2018-04-06T13:07:20.647Z,100657.61
2018-04-06T13:08:59.834Z,100660.27
2018-04-06T13:10:37.780Z,100685.08
2018-04-06T13:12:15.587Z,100656.25
2018-04-06T13:13:54.145Z,100686.79
2018-04-06T13:15:34.035Z,100752.79
2018-04-06T13:17:13.067Z,100757.24
2018-04-06T13:18:51.000Z,100819.35
2018-04-06T13:20:28.734Z,100847.23
2018-04-06T13:22:06.231Z,100821.58
2018-04-06T13:23:43.938Z,100846.78
2018-04-06T13:25:22.011Z,100838.38
2018-04-06T13:26:59.596Z,100819.35
2018-04-06T13:28:38.135Z,100797.12
2018-04-06T13:30:17.450Z,100740.83
2018-04-06T13:31:55.560Z,100735.48
2018-04-06T13:33:33.029Z,100794.05
2018-04-06T13:35:10.654Z,100854.73
2018-04-06T13:36:48.493Z,100809.53
2018-04-06T13:38:26.556Z,100793.98
2018-04-06T13:40:04.675Z,100781.14
2018-04-06T13:41:42.174Z,100821.50
2018-04-06T13:43:19.971Z,100859.59
2018-04-06T13:44:58.947Z,100853.40
2018-04-06T13:46:36.423Z,100835.19
2018-04-06T13:48:14.005Z,100852.95
2018-04-06T13:49:51.682Z,100839.62
2018-04-06T13:51:29.617Z,100790.86
2018-04-06T13:53:07.324Z,100793.50
2018-04-06T13:54:46.035Z,100877.28
2018-04-06T13:56:23.778Z,100946.03
2018-04-06T13:58:01.565Z,100938.50
2018-04-06T13:59:40.263Z,100968.64
2018-04-06T14:01:17.920Z,100926.05
2018-04-06T14:02:55.511Z,100903.44
2018-04-06T14:04:33.781Z,100957.54
2018-04-06T14:06:11.421Z,101096.96
2018-04-06T14:07:48.829Z,101295.17
2018-04-06T14:09:26.716Z,101355.63
2018-04-06T14:11:04.527Z,101373.41
2018-04-06T14:12:42.064Z,101358.74
2018-04-06T14:14:19.865Z,101209.78
2018-04-06T14:15:58.642Z,101062.70
2018-04-06T14:17:37.336Z,101006.36
2018-04-06T14:19:15.248Z,100940.66
2018-04-06T14:20:52.900Z,101000.15
2018-04-06T14:22:30.671Z,101002.34
2018-04-06T14:24:08.808Z,100972.58
2018-04-06T14:25:48.001Z,100927.73
2018-04-06T14:27:25.949Z,100915.33
2018-04-06T14:29:05.281Z,100965.47
2018-04-06T14:30:43.501Z,100947.23
2018-04-06T14:32:21.248Z,100916.58
2018-04-06T14:33:58.904Z,100956.58
2018-04-06T14:35:36.746Z,101078.19
2018-04-06T14:37:14.453Z,101048.41
2018-04-06T14:38:52.042Z,101008.04
2018-04-06T14:40:29.651Z,101047.55
2018-04-06T14:42:07.143Z,101045.29
2018-04-06T14:43:44.553Z,101032.47
2018-04-06T14:45:22.417Z,101115.91
2018-04-06T14:48:35.268Z,101116.80
2018-04-06T14:50:13.693Z,101124.33
2018-04-06T14:51:51.273Z,101085.69
2018-04-06T14:53:31.154Z,101060.37
2018-04-06T14:55:09.458Z,101068.34
2018-04-06T14:56:48.278Z,101104.75
2018-04-06T14:58:26.067Z,101234.98
2018-04-06T15:00:07.427Z,101204.75
2018-04-06T15:01:45.513Z,101142.46
2018-04-06T15:03:23.151Z,101156.27
2018-04-06T15:05:02.942Z,101134.92
2018-04-06T15:06:41.001Z,101043.41
2018-04-06T15:08:18.412Z,101061.19
2018-04-06T15:09:55.937Z,101129.58
2018-04-06T15:11:33.619Z,101242.48
2018-04-06T15:13:11.649Z,101286.03
2018-04-06T15:14:49.179Z,101297.59
2018-04-06T15:16:26.988Z,101275.76
2018-04-06T15:18:05.251Z,101269.14
2018-04-06T15:19:44.183Z,101250.00
2018-04-06T15:21:21.889Z,101167.33
2018-04-06T15:22:59.517Z,101073.12
2018-04-06T15:24:37.198Z,101002.09
2018-04-06T15:26:15.281Z,100981.25
2018-04-06T15:27:52.912Z,101006.08
2018-04-06T15:29:30.988Z,101080.24
2018-04-06T15:31:09.104Z,101180.63
2018-04-06T15:32:47.616Z,101212.66
2018-04-06T15:34:25.386Z,101180.18
2018-04-06T15:36:03.209Z,101187.73
2018-04-06T15:37:41.296Z,101128.59
2018-04-06T15:39:19.509Z,101045.59
2018-04-06T15:40:57.000Z,100974.98
2018-04-06T15:42:34.449Z,101034.89
2018-04-06T15:44:12.880Z,101111.69
2018-04-06T15:45:51.905Z,101161.48
2018-04-06T15:47:30.132Z,101185.91
2018-04-06T15:49:08.580Z,101149.00
2018-04-06T15:50:46.997Z,101082.79
2018-04-06T15:52:25.450Z,101022.41
2018-04-06T15:54:03.987Z,100968.66
2018-04-06T15:55:42.602Z,100980.20
2018-04-06T15:57:20.581Z,100942.47
2018-04-06T15:58:58.240Z,100943.41
2018-04-06T16:00:36.893Z,100958.02
2018-04-06T16:02:14.717Z,100957.13
2018-04-06T16:03:52.534Z,100962.41
2018-04-06T16:05:30.205Z,100995.30
2018-04-06T16:07:09.081Z,101025.45
2018-04-06T16:08:47.625Z,101076.55
2018-04-06T16:10:25.523Z,101109.34
2018-04-06T16:12:03.783Z,101108.92
2018-04-06T16:13:42.728Z,101098.67
2018-04-06T16:15:21.424Z,101024.10
2018-04-06T16:16:59.918Z,100947.30
2018-04-06T16:18:38.054Z,100906.91
2018-04-06T16:20:15.784Z,100889.16
2018-04-06T16:21:53.585Z,100932.25
2018-04-06T16:23:31.277Z,100965.91
2018-04-06T16:25:08.878Z,101001.40
2018-04-06T16:26:46.315Z,100985.42
2018-04-06T16:28:24.630Z,100958.34
2018-04-06T16:30:03.395Z,100954.79
2018-04-06T16:31:41.316Z,100981.86
2018-04-06T16:33:19.463Z,100961.46
2018-04-06T16:34:58.033Z,100961.88
2018-04-06T16:36:36.323Z,100962.27
2018-04-06T16:38:13.969Z,100980.95
2018-04-06T16:39:51.779Z,100962.34
2018-04-06T16:41:29.244Z,100937.05
2018-04-06T16:43:06.934Z,100927.23
2018-04-06T16:44:46.062Z,100902.41
2018-04-06T16:46:24.516Z,100877.08
2018-04-06T16:48:03.166Z,100872.17
2018-04-06T16:49:41.365Z,100882.43
2018-04-06T16:51:19.284Z,100870.84
2018-04-06T16:52:58.451Z,100869.54
2018-04-06T16:54:36.750Z,100876.20
2018-04-06T16:56:14.815Z,100872.17
2018-04-06T16:57:54.689Z,100873.95
2018-04-06T16:59:37.180Z,100875.27
2018-04-06T17:01:17.913Z,100876.16
2018-04-06T17:02:55.727Z,100832.22
2018-04-06T17:04:33.439Z,100800.79
2018-04-06T17:06:11.968Z,100772.84
2018-04-06T17:07:51.520Z,100755.07
2018-04-06T17:09:29.161Z,100751.09
2018-04-06T17:11:07.337Z,100752.84
2018-04-06T17:12:45.508Z,100768.81
2018-04-06T17:14:23.566Z,100731.53
2018-04-06T17:16:01.773Z,100725.81
2018-04-06T17:17:39.874Z,100703.63
2018-04-06T17:19:24.039Z,100687.21
2018-04-06T17:21:03.290Z,100692.09
2018-04-06T17:22:40.943Z,100693.43
2018-04-06T17:24:18.185Z,100675.72
2018-04-06T17:25:56.926Z,100688.55
2018-04-06T17:27:35.958Z,100687.66
2018-04-06T17:29:13.897Z,100690.72
2018-04-06T17:30:51.751Z,100659.71
2018-04-06T17:32:29.345Z,100636.20
2018-04-06T17:34:07.619Z,100636.22
2018-04-06T17:35:45.307Z,100636.20
2018-04-06T17:37:23.996Z,100642.43
2018-04-06T17:39:03.074Z,100625.14
2018-04-06T17:40:41.711Z,100609.63
2018-04-06T17:42:19.050Z,100598.55
2018-04-06T17:43:56.880Z,100604.29
2018-04-06T17:45:38.155Z,100613.56
2018-04-06T17:47:18.281Z,100597.14
2018-04-06T17:48:55.936Z,100564.83
2018-04-06T17:50:33.925Z,100554.66
2018-04-06T17:52:16.693Z,100518.37
2018-04-06T17:53:56.016Z,100499.73
2018-04-06T17:55:33.734Z,100487.78
2018-04-06T17:57:11.857Z,100461.63
2018-04-06T17:58:50.399Z,100459.00
2018-04-06T18:00:29.959Z,100443.55
2018-04-06T18:02:09.569Z,100432.88
2018-04-06T18:03:48.768Z,100421.78
2018-04-06T18:05:27.739Z,100416.48
2018-04-06T18:07:06.189Z,100405.42
2018-04-06T18:08:43.778Z,100382.44
2018-04-06T18:10:21.412Z,100378.46
2018-04-06T18:11:59.413Z,100374.45
2018-04-06T18:13:38.936Z,100366.05
2018-04-06T18:15:17.848Z,100359.88
2018-04-06T18:16:57.648Z,100363.44
2018-04-06T18:18:35.870Z,100354.12
2018-04-06T18:20:13.367Z,100336.43
2018-04-06T18:21:51.911Z,100318.72
2018-04-06T18:23:29.416Z,100308.55
2018-04-06T18:25:08.459Z,100306.77
2018-04-06T18:26:46.285Z,100296.12
2018-04-06T18:28:23.905Z,100281.52
2018-04-06T18:30:01.217Z,100275.34
2018-04-06T18:31:39.833Z,100257.23
2018-04-06T18:33:17.521Z,100238.25
2018-04-06T18:34:55.106Z,100223.25
2018-04-06T18:36:32.638Z,100212.16
2018-04-06T18:38:11.429Z,100193.20
2018-04-06T18:39:49.154Z,100186.95
2018-04-06T18:43:05.729Z,100181.59
2018-04-06T18:44:44.262Z,100179.81
2018-04-06T18:46:22.298Z,100172.31
2018-04-06T18:47:59.943Z,100167.88
2018-04-06T18:49:37.749Z,100168.34
2018-04-06T18:51:15.587Z,100151.52
2018-04-06T18:52:54.195Z,100142.27
2018-04-06T18:54:32.230Z,100143.09
2018-04-06T18:56:09.935Z,100129.00
2018-04-06T18:57:47.711Z,100111.77
2018-04-06T18:59:25.575Z,100104.23
2018-04-06T19:01:03.081Z,100101.58
2018-04-06T19:02:41.721Z,100101.62
2018-04-06T19:04:22.039Z,100092.80
2018-04-06T19:06:00.206Z,100091.91
2018-04-06T19:07:37.782Z,100083.52
2018-04-06T19:09:16.415Z,100063.18
2018-04-06T19:10:55.521Z,100054.31
2018-04-06T19:12:33.165Z,100055.66
2018-04-06T19:14:10.590Z,100057.86
2018-04-06T19:15:49.197Z,100052.14
2018-04-06T19:17:27.275Z,100037.98
2018-04-06T19:19:04.867Z,100024.28
2018-04-06T19:20:44.302Z,100011.50
2018-04-06T19:22:22.581Z,100001.34
2018-04-06T19:24:00.189Z,99988.47
2018-04-06T19:25:38.162Z,99998.22
2018-04-06T19:27:15.751Z,99993.77
2018-04-06T19:28:54.155Z,100008.85
2018-04-06T19:30:31.941Z,99981.88
2018-04-06T19:32:09.079Z,99973.53
2018-04-06T19:33:46.322Z,99953.66
2018-04-06T19:35:25.476Z,99937.34
2018-04-06T19:37:03.116Z,99939.05
2018-04-06T19:38:40.445Z,99907.31
2018-04-06T19:40:17.828Z,99901.10
2018-04-06T19:41:56.602Z,99885.27
2018-04-06T19:43:33.927Z,99894.05